sensor_id;sensor_type;location;lat;lon;timestamp;P1;durP1;ratioP1;P2;durP2;ratioP2
19788;SDS011;10054;59.332;18.244;2023-08-12T00:00:44;3.93;;;2.00;;
19788;SDS011;10054;59.332;18.244;2023-08-12T00:03:13;4.87;;;2.10;;
19788;SDS011;10054;59.332;18.244;2023-08-12T00:05:41;5.43;;;2.23;;
19788;SDS011;10054;59.332;18.244;2023-08-12T00:08:10;5.10;;;1.90;;
19788;SDS011;10054;59.332;18.244;2023-08-12T00:10:39;3.17;;;1.80;;
19788;SDS011;10054;59.332;18.244;2023-08-12T00:13:07;5.07;;;1.73;;
19788;SDS011;10054;59.332;18.244;2023-08-12T00:15:36;5.70;;;2.00;;
19788;SDS011;10054;59.332;18.244;2023-08-12T00:18:04;4.73;;;1.73;;
19788;SDS011;10054;59.332;18.244;2023-08-12T00:20:34;4.90;;;1.83;;
19788;SDS011;10054;59.332;18.244;2023-08-12T00:23:04;6.37;;;2.00;;
19788;SDS011;10054;59.332;18.244;2023-08-12T00:25:33;5.93;;;2.10;;
19788;SDS011;10054;59.332;18.244;2023-08-12T00:28:01;4.00;;;2.00;;
19788;SDS011;10054;59.332;18.244;2023-08-12T00:30:30;6.97;;;2.00;;
19788;SDS011;10054;59.332;18.244;2023-08-12T00:32:59;4.13;;;2.07;;
19788;SDS011;10054;59.332;18.244;2023-08-12T00:35:27;4.37;;;1.70;;
19788;SDS011;10054;59.332;18.244;2023-08-12T00:37:56;5.10;;;2.10;;
19788;SDS011;10054;59.332;18.244;2023-08-12T00:40:25;4.47;;;2.47;;
19788;SDS011;10054;59.332;18.244;2023-08-12T00:42:54;5.73;;;1.90;;
19788;SDS011;10054;59.332;18.244;2023-08-12T00:45:23;6.07;;;1.87;;
19788;SDS011;10054;59.332;18.244;2023-08-12T00:47:51;5.23;;;1.83;;
19788;SDS011;10054;59.332;18.244;2023-08-12T00:50:21;5.03;;;1.93;;
19788;SDS011;10054;59.332;18.244;2023-08-12T00:52:49;6.63;;;2.03;;
19788;SDS011;10054;59.332;18.244;2023-08-12T00:55:18;6.00;;;1.93;;
19788;SDS011;10054;59.332;18.244;2023-08-12T00:57:48;4.37;;;1.50;;
19788;SDS011;10054;59.332;18.244;2023-08-12T01:00:18;4.97;;;1.80;;
19788;SDS011;10054;59.332;18.244;2023-08-12T01:02:48;5.77;;;2.10;;
19788;SDS011;10054;59.332;18.244;2023-08-12T01:05:17;4.17;;;1.60;;
19788;SDS011;10054;59.332;18.244;2023-08-12T01:07:47;3.17;;;1.73;;
19788;SDS011;10054;59.332;18.244;2023-08-12T01:10:15;4.67;;;2.00;;
19788;SDS011;10054;59.332;18.244;2023-08-12T01:12:47;4.50;;;1.97;;
19788;SDS011;10054;59.332;18.244;2023-08-12T01:15:23;2.80;;;1.73;;
19788;SDS011;10054;59.332;18.244;2023-08-12T01:17:53;3.87;;;1.90;;
19788;SDS011;10054;59.332;18.244;2023-08-12T01:20:23;2.87;;;1.70;;
19788;SDS011;10054;59.332;18.244;2023-08-12T01:23:06;4.13;;;1.97;;
19788;SDS011;10054;59.332;18.244;2023-08-12T01:25:36;3.47;;;1.90;;
19788;SDS011;10054;59.332;18.244;2023-08-12T01:28:05;3.17;;;1.47;;
19788;SDS011;10054;59.332;18.244;2023-08-12T01:30:34;5.90;;;2.00;;
19788;SDS011;10054;59.332;18.244;2023-08-12T01:33:12;3.57;;;1.70;;
19788;SDS011;10054;59.332;18.244;2023-08-12T01:35:46;4.33;;;1.87;;
19788;SDS011;10054;59.332;18.244;2023-08-12T01:38:15;5.47;;;1.57;;
19788;SDS011;10054;59.332;18.244;2023-08-12T01:40:45;8.60;;;2.20;;
19788;SDS011;10054;59.332;18.244;2023-08-12T01:43:15;5.80;;;1.77;;
19788;SDS011;10054;59.332;18.244;2023-08-12T01:45:43;3.53;;;1.80;;
19788;SDS011;10054;59.332;18.244;2023-08-12T01:48:12;3.23;;;1.70;;
19788;SDS011;10054;59.332;18.244;2023-08-12T01:50:41;6.63;;;1.90;;
19788;SDS011;10054;59.332;18.244;2023-08-12T01:53:11;4.90;;;1.67;;
19788;SDS011;10054;59.332;18.244;2023-08-12T01:55:44;2.30;;;1.50;;
19788;SDS011;10054;59.332;18.244;2023-08-12T01:58:13;4.97;;;1.60;;
19788;SDS011;10054;59.332;18.244;2023-08-12T02:00:42;5.03;;;2.00;;
19788;SDS011;10054;59.332;18.244;2023-08-12T02:03:10;2.87;;;1.70;;
19788;SDS011;10054;59.332;18.244;2023-08-12T02:05:39;3.53;;;1.60;;
19788;SDS011;10054;59.332;18.244;2023-08-12T02:08:08;2.97;;;1.60;;
19788;SDS011;10054;59.332;18.244;2023-08-12T02:10:36;2.63;;;1.53;;
19788;SDS011;10054;59.332;18.244;2023-08-12T02:13:06;3.63;;;1.87;;
19788;SDS011;10054;59.332;18.244;2023-08-12T02:15:34;4.60;;;1.80;;
19788;SDS011;10054;59.332;18.244;2023-08-12T02:18:04;3.20;;;1.70;;
19788;SDS011;10054;59.332;18.244;2023-08-12T02:20:33;3.80;;;1.77;;
19788;SDS011;10054;59.332;18.244;2023-08-12T02:23:02;11.10;;;2.63;;
19788;SDS011;10054;59.332;18.244;2023-08-12T02:25:31;2.80;;;1.87;;
19788;SDS011;10054;59.332;18.244;2023-08-12T02:27:59;2.97;;;1.40;;
19788;SDS011;10054;59.332;18.244;2023-08-12T02:30:28;2.57;;;1.50;;
19788;SDS011;10054;59.332;18.244;2023-08-12T02:32:57;3.17;;;1.67;;
19788;SDS011;10054;59.332;18.244;2023-08-12T02:35:26;6.50;;;1.70;;
19788;SDS011;10054;59.332;18.244;2023-08-12T02:37:54;4.90;;;1.37;;
19788;SDS011;10054;59.332;18.244;2023-08-12T02:40:23;2.90;;;1.50;;
19788;SDS011;10054;59.332;18.244;2023-08-12T02:42:53;1.93;;;1.50;;
19788;SDS011;10054;59.332;18.244;2023-08-12T02:45:21;2.60;;;1.53;;
19788;SDS011;10054;59.332;18.244;2023-08-12T02:47:50;3.37;;;1.50;;
19788;SDS011;10054;59.332;18.244;2023-08-12T02:50:19;1.83;;;1.60;;
19788;SDS011;10054;59.332;18.244;2023-08-12T02:52:47;2.73;;;1.50;;
19788;SDS011;10054;59.332;18.244;2023-08-12T02:55:17;3.80;;;1.90;;
19788;SDS011;10054;59.332;18.244;2023-08-12T02:57:46;5.50;;;1.90;;
19788;SDS011;10054;59.332;18.244;2023-08-12T03:00:14;2.27;;;1.40;;
19788;SDS011;10054;59.332;18.244;2023-08-12T03:02:43;1.57;;;1.47;;
19788;SDS011;10054;59.332;18.244;2023-08-12T03:05:12;3.20;;;1.57;;
19788;SDS011;10054;59.332;18.244;2023-08-12T03:07:41;4.60;;;1.80;;
19788;SDS011;10054;59.332;18.244;2023-08-12T03:10:10;4.60;;;1.90;;
19788;SDS011;10054;59.332;18.244;2023-08-12T03:12:39;4.30;;;1.90;;
19788;SDS011;10054;59.332;18.244;2023-08-12T03:15:07;4.50;;;1.90;;
19788;SDS011;10054;59.332;18.244;2023-08-12T03:17:37;3.07;;;1.80;;
19788;SDS011;10054;59.332;18.244;2023-08-12T03:20:07;3.97;;;1.90;;
19788;SDS011;10054;59.332;18.244;2023-08-12T03:22:36;2.93;;;2.00;;
19788;SDS011;10054;59.332;18.244;2023-08-12T03:25:06;3.27;;;2.13;;
19788;SDS011;10054;59.332;18.244;2023-08-12T03:27:37;3.57;;;1.80;;
19788;SDS011;10054;59.332;18.244;2023-08-12T03:30:08;5.80;;;2.13;;
19788;SDS011;10054;59.332;18.244;2023-08-12T03:32:38;3.30;;;1.60;;
19788;SDS011;10054;59.332;18.244;2023-08-12T03:35:06;2.70;;;1.90;;
19788;SDS011;10054;59.332;18.244;2023-08-12T03:37:36;5.90;;;2.37;;
19788;SDS011;10054;59.332;18.244;2023-08-12T03:40:05;4.80;;;2.20;;
19788;SDS011;10054;59.332;18.244;2023-08-12T03:42:36;6.53;;;2.27;;
19788;SDS011;10054;59.332;18.244;2023-08-12T03:45:06;3.53;;;2.20;;
19788;SDS011;10054;59.332;18.244;2023-08-12T03:47:35;3.70;;;2.00;;
19788;SDS011;10054;59.332;18.244;2023-08-12T03:50:04;3.03;;;2.40;;
19788;SDS011;10054;59.332;18.244;2023-08-12T03:52:33;3.70;;;2.30;;
19788;SDS011;10054;59.332;18.244;2023-08-12T03:55:01;2.90;;;1.90;;
19788;SDS011;10054;59.332;18.244;2023-08-12T03:57:32;7.60;;;2.37;;
19788;SDS011;10054;59.332;18.244;2023-08-12T04:00:00;3.00;;;2.17;;
19788;SDS011;10054;59.332;18.244;2023-08-12T04:02:31;3.73;;;2.10;;
19788;SDS011;10054;59.332;18.244;2023-08-12T04:05:02;3.70;;;1.97;;
19788;SDS011;10054;59.332;18.244;2023-08-12T04:07:35;4.57;;;1.77;;
19788;SDS011;10054;59.332;18.244;2023-08-12T04:10:04;5.50;;;1.87;;
19788;SDS011;10054;59.332;18.244;2023-08-12T04:12:34;4.20;;;2.10;;
19788;SDS011;10054;59.332;18.244;2023-08-12T04:15:02;2.57;;;1.80;;
19788;SDS011;10054;59.332;18.244;2023-08-12T04:17:32;3.27;;;1.73;;
19788;SDS011;10054;59.332;18.244;2023-08-12T04:20:01;3.37;;;1.47;;
19788;SDS011;10054;59.332;18.244;2023-08-12T04:22:33;3.10;;;1.67;;
19788;SDS011;10054;59.332;18.244;2023-08-12T04:25:02;2.53;;;1.73;;
19788;SDS011;10054;59.332;18.244;2023-08-12T04:27:32;2.40;;;1.67;;
19788;SDS011;10054;59.332;18.244;2023-08-12T04:30:01;2.07;;;1.63;;
19788;SDS011;10054;59.332;18.244;2023-08-12T04:32:30;3.13;;;1.60;;
19788;SDS011;10054;59.332;18.244;2023-08-12T04:34:59;5.00;;;1.83;;
19788;SDS011;10054;59.332;18.244;2023-08-12T04:37:28;3.60;;;1.70;;
19788;SDS011;10054;59.332;18.244;2023-08-12T04:39:58;3.40;;;1.80;;
19788;SDS011;10054;59.332;18.244;2023-08-12T04:42:28;3.17;;;1.67;;
19788;SDS011;10054;59.332;18.244;2023-08-12T04:44:57;2.40;;;1.40;;
19788;SDS011;10054;59.332;18.244;2023-08-12T04:47:27;4.37;;;1.70;;
19788;SDS011;10054;59.332;18.244;2023-08-12T04:49:56;3.27;;;1.70;;
19788;SDS011;10054;59.332;18.244;2023-08-12T04:52:25;3.03;;;1.60;;
19788;SDS011;10054;59.332;18.244;2023-08-12T04:54:55;4.47;;;1.87;;
19788;SDS011;10054;59.332;18.244;2023-08-12T04:57:24;1.90;;;1.30;;
19788;SDS011;10054;59.332;18.244;2023-08-12T04:59:53;3.90;;;1.50;;
19788;SDS011;10054;59.332;18.244;2023-08-12T05:02:22;6.00;;;1.90;;
19788;SDS011;10054;59.332;18.244;2023-08-12T05:04:51;4.70;;;1.40;;
19788;SDS011;10054;59.332;18.244;2023-08-12T05:07:20;1.67;;;1.37;;
19788;SDS011;10054;59.332;18.244;2023-08-12T05:09:49;6.70;;;1.67;;
19788;SDS011;10054;59.332;18.244;2023-08-12T05:12:18;2.43;;;1.27;;
19788;SDS011;10054;59.332;18.244;2023-08-12T05:14:47;2.27;;;1.50;;
19788;SDS011;10054;59.332;18.244;2023-08-12T05:17:16;2.87;;;1.30;;
19788;SDS011;10054;59.332;18.244;2023-08-12T05:19:44;2.17;;;1.47;;
19788;SDS011;10054;59.332;18.244;2023-08-12T05:22:13;4.53;;;1.30;;
19788;SDS011;10054;59.332;18.244;2023-08-12T05:24:42;3.53;;;1.40;;
19788;SDS011;10054;59.332;18.244;2023-08-12T05:27:11;3.20;;;1.40;;
19788;SDS011;10054;59.332;18.244;2023-08-12T05:29:40;3.55;;;1.50;;
19788;SDS011;10054;59.332;18.244;2023-08-12T05:32:08;2.35;;;1.20;;
19788;SDS011;10054;59.332;18.244;2023-08-12T05:34:37;2.17;;;1.40;;
19788;SDS011;10054;59.332;18.244;2023-08-12T05:37:06;2.90;;;1.40;;
19788;SDS011;10054;59.332;18.244;2023-08-12T05:39:35;2.00;;;1.40;;
19788;SDS011;10054;59.332;18.244;2023-08-12T05:42:04;2.80;;;1.30;;
19788;SDS011;10054;59.332;18.244;2023-08-12T05:44:33;1.90;;;1.37;;
19788;SDS011;10054;59.332;18.244;2023-08-12T05:47:01;3.67;;;1.50;;
19788;SDS011;10054;59.332;18.244;2023-08-12T05:49:30;2.45;;;1.20;;
19788;SDS011;10054;59.332;18.244;2023-08-12T05:51:58;2.80;;;1.10;;
19788;SDS011;10054;59.332;18.244;2023-08-12T05:54:27;2.30;;;1.37;;
19788;SDS011;10054;59.332;18.244;2023-08-12T05:56:57;1.60;;;1.50;;
19788;SDS011;10054;59.332;18.244;2023-08-12T05:59:26;3.47;;;1.50;;
19788;SDS011;10054;59.332;18.244;2023-08-12T06:01:55;3.98;;;1.42;;
19788;SDS011;10054;59.332;18.244;2023-08-12T06:04:23;4.80;;;1.30;;
19788;SDS011;10054;59.332;18.244;2023-08-12T06:06:52;3.23;;;1.30;;
19788;SDS011;10054;59.332;18.244;2023-08-12T06:09:21;2.90;;;1.40;;
19788;SDS011;10054;59.332;18.244;2023-08-12T06:11:50;3.80;;;1.30;;
19788;SDS011;10054;59.332;18.244;2023-08-12T06:14:18;1.60;;;1.10;;
19788;SDS011;10054;59.332;18.244;2023-08-12T06:16:47;2.43;;;1.20;;
19788;SDS011;10054;59.332;18.244;2023-08-12T06:19:16;1.33;;;1.10;;
19788;SDS011;10054;59.332;18.244;2023-08-12T06:21:44;3.93;;;1.30;;
19788;SDS011;10054;59.332;18.244;2023-08-12T06:24:13;2.37;;;1.35;;
19788;SDS011;10054;59.332;18.244;2023-08-12T06:26:41;2.25;;;1.02;;
19788;SDS011;10054;59.332;18.244;2023-08-12T06:29:10;3.92;;;1.40;;
19788;SDS011;10054;59.332;18.244;2023-08-12T06:31:39;3.17;;;1.30;;
19788;SDS011;10054;59.332;18.244;2023-08-12T06:34:07;3.45;;;1.20;;
19788;SDS011;10054;59.332;18.244;2023-08-12T06:36:36;3.50;;;1.20;;
19788;SDS011;10054;59.332;18.244;2023-08-12T06:39:04;4.13;;;1.40;;
19788;SDS011;10054;59.332;18.244;2023-08-12T06:41:33;2.67;;;1.27;;
19788;SDS011;10054;59.332;18.244;2023-08-12T06:44:02;1.65;;;1.12;;
19788;SDS011;10054;59.332;18.244;2023-08-12T06:46:30;2.03;;;1.10;;
19788;SDS011;10054;59.332;18.244;2023-08-12T06:48:59;4.47;;;1.40;;
19788;SDS011;10054;59.332;18.244;2023-08-12T06:51:29;3.72;;;1.35;;
19788;SDS011;10054;59.332;18.244;2023-08-12T06:53:58;3.77;;;1.30;;
19788;SDS011;10054;59.332;18.244;2023-08-12T06:56:27;4.33;;;1.30;;
19788;SDS011;10054;59.332;18.244;2023-08-12T06:58:57;1.77;;;1.10;;
19788;SDS011;10054;59.332;18.244;2023-08-12T07:01:26;2.30;;;1.00;;
19788;SDS011;10054;59.332;18.244;2023-08-12T07:03:54;2.72;;;1.10;;
19788;SDS011;10054;59.332;18.244;2023-08-12T07:06:29;3.98;;;1.45;;
19788;SDS011;10054;59.332;18.244;2023-08-12T07:08:57;2.70;;;1.30;;
19788;SDS011;10054;59.332;18.244;2023-08-12T07:11:26;3.33;;;1.30;;
19788;SDS011;10054;59.332;18.244;2023-08-12T07:13:56;2.58;;;1.20;;
19788;SDS011;10054;59.332;18.244;2023-08-12T07:16:25;2.13;;;1.33;;
19788;SDS011;10054;59.332;18.244;2023-08-12T07:18:53;2.12;;;1.30;;
19788;SDS011;10054;59.332;18.244;2023-08-12T07:21:22;2.47;;;1.27;;
19788;SDS011;10054;59.332;18.244;2023-08-12T07:23:51;2.23;;;1.30;;
19788;SDS011;10054;59.332;18.244;2023-08-12T07:26:19;5.17;;;1.30;;
19788;SDS011;10054;59.332;18.244;2023-08-12T07:28:48;2.77;;;1.40;;
19788;SDS011;10054;59.332;18.244;2023-08-12T07:31:17;6.10;;;1.30;;
19788;SDS011;10054;59.332;18.244;2023-08-12T07:33:45;1.85;;;1.17;;
19788;SDS011;10054;59.332;18.244;2023-08-12T07:36:14;2.62;;;1.17;;
19788;SDS011;10054;59.332;18.244;2023-08-12T07:38:42;3.22;;;1.40;;
19788;SDS011;10054;59.332;18.244;2023-08-12T07:41:11;2.33;;;1.10;;
19788;SDS011;10054;59.332;18.244;2023-08-12T07:43:40;3.15;;;1.50;;
19788;SDS011;10054;59.332;18.244;2023-08-12T07:46:08;1.75;;;1.35;;
19788;SDS011;10054;59.332;18.244;2023-08-12T07:48:37;3.10;;;1.30;;
19788;SDS011;10054;59.332;18.244;2023-08-12T07:51:06;2.45;;;1.35;;
19788;SDS011;10054;59.332;18.244;2023-08-12T07:53:34;2.35;;;1.30;;
19788;SDS011;10054;59.332;18.244;2023-08-12T07:56:03;2.77;;;1.27;;
19788;SDS011;10054;59.332;18.244;2023-08-12T07:58:31;2.37;;;1.40;;
19788;SDS011;10054;59.332;18.244;2023-08-12T08:01:00;3.70;;;1.47;;
19788;SDS011;10054;59.332;18.244;2023-08-12T08:03:31;1.77;;;1.32;;
19788;SDS011;10054;59.332;18.244;2023-08-12T08:06:00;1.70;;;1.10;;
19788;SDS011;10054;59.332;18.244;2023-08-12T08:08:28;3.17;;;1.27;;
19788;SDS011;10054;59.332;18.244;2023-08-12T08:10:57;3.27;;;1.35;;
19788;SDS011;10054;59.332;18.244;2023-08-12T08:13:25;1.87;;;1.20;;
19788;SDS011;10054;59.332;18.244;2023-08-12T08:15:54;1.85;;;1.27;;
19788;SDS011;10054;59.332;18.244;2023-08-12T08:18:22;1.90;;;1.20;;
19788;SDS011;10054;59.332;18.244;2023-08-12T08:20:51;3.33;;;1.57;;
19788;SDS011;10054;59.332;18.244;2023-08-12T08:23:20;3.33;;;1.42;;
19788;SDS011;10054;59.332;18.244;2023-08-12T08:25:50;2.67;;;1.33;;
19788;SDS011;10054;59.332;18.244;2023-08-12T08:28:20;2.58;;;1.40;;
19788;SDS011;10054;59.332;18.244;2023-08-12T08:30:49;1.73;;;1.20;;
19788;SDS011;10054;59.332;18.244;2023-08-12T08:33:18;2.92;;;1.45;;
19788;SDS011;10054;59.332;18.244;2023-08-12T08:35:47;4.45;;;1.55;;
19788;SDS011;10054;59.332;18.244;2023-08-12T08:38:15;4.35;;;1.50;;
19788;SDS011;10054;59.332;18.244;2023-08-12T08:40:44;2.83;;;1.50;;
19788;SDS011;10054;59.332;18.244;2023-08-12T08:43:13;2.62;;;1.40;;
19788;SDS011;10054;59.332;18.244;2023-08-12T08:45:45;1.92;;;1.52;;
19788;SDS011;10054;59.332;18.244;2023-08-12T08:48:16;4.75;;;1.60;;
19788;SDS011;10054;59.332;18.244;2023-08-12T08:50:45;3.12;;;1.47;;
19788;SDS011;10054;59.332;18.244;2023-08-12T08:53:17;2.60;;;1.57;;
19788;SDS011;10054;59.332;18.244;2023-08-12T08:55:47;2.65;;;1.65;;
19788;SDS011;10054;59.332;18.244;2023-08-12T08:58:16;2.52;;;1.57;;
19788;SDS011;10054;59.332;18.244;2023-08-12T09:00:45;1.45;;;1.32;;
19788;SDS011;10054;59.332;18.244;2023-08-12T09:03:14;2.35;;;1.60;;
19788;SDS011;10054;59.332;18.244;2023-08-12T09:05:45;1.87;;;1.45;;
19788;SDS011;10054;59.332;18.244;2023-08-12T09:08:15;2.60;;;1.60;;
19788;SDS011;10054;59.332;18.244;2023-08-12T09:10:44;2.77;;;1.60;;
19788;SDS011;10054;59.332;18.244;2023-08-12T09:13:14;1.52;;;1.32;;
19788;SDS011;10054;59.332;18.244;2023-08-12T09:15:45;5.65;;;1.85;;
19788;SDS011;10054;59.332;18.244;2023-08-12T09:18:13;6.55;;;1.77;;
19788;SDS011;10054;59.332;18.244;2023-08-12T09:20:44;5.03;;;1.52;;
19788;SDS011;10054;59.332;18.244;2023-08-12T09:23:13;2.30;;;1.52;;
19788;SDS011;10054;59.332;18.244;2023-08-12T09:25:42;1.80;;;1.50;;
19788;SDS011;10054;59.332;18.244;2023-08-12T09:28:13;4.55;;;1.60;;
19788;SDS011;10054;59.332;18.244;2023-08-12T09:30:41;2.58;;;1.60;;
19788;SDS011;10054;59.332;18.244;2023-08-12T09:33:10;4.22;;;1.45;;
19788;SDS011;10054;59.332;18.244;2023-08-12T09:35:39;4.28;;;1.47;;
19788;SDS011;10054;59.332;18.244;2023-08-12T09:38:15;7.95;;;1.57;;
19788;SDS011;10054;59.332;18.244;2023-08-12T09:40:40;5.20;;;1.50;;
19788;SDS011;10054;59.332;18.244;2023-08-12T09:43:09;1.80;;;1.30;;
19788;SDS011;10054;59.332;18.244;2023-08-12T09:45:38;2.08;;;1.40;;
19788;SDS011;10054;59.332;18.244;2023-08-12T09:48:07;1.95;;;1.40;;
19788;SDS011;10054;59.332;18.244;2023-08-12T09:50:37;1.40;;;1.30;;
19788;SDS011;10054;59.332;18.244;2023-08-12T09:53:05;3.05;;;1.30;;
19788;SDS011;10054;59.332;18.244;2023-08-12T09:55:34;5.60;;;1.77;;
19788;SDS011;10054;59.332;18.244;2023-08-12T09:58:05;1.47;;;1.37;;
19788;SDS011;10054;59.332;18.244;2023-08-12T10:00:36;1.70;;;1.35;;
19788;SDS011;10054;59.332;18.244;2023-08-12T10:03:04;1.27;;;1.27;;
19788;SDS011;10054;59.332;18.244;2023-08-12T10:05:34;3.62;;;1.50;;
19788;SDS011;10054;59.332;18.244;2023-08-12T10:08:05;1.62;;;1.50;;
19788;SDS011;10054;59.332;18.244;2023-08-12T10:10:37;1.62;;;1.50;;
19788;SDS011;10054;59.332;18.244;2023-08-12T10:13:06;1.95;;;1.50;;
19788;SDS011;10054;59.332;18.244;2023-08-12T10:15:41;1.80;;;1.70;;
19788;SDS011;10054;59.332;18.244;2023-08-12T10:18:10;2.20;;;1.67;;
19788;SDS011;10054;59.332;18.244;2023-08-12T10:20:40;1.85;;;1.40;;
19788;SDS011;10054;59.332;18.244;2023-08-12T10:23:15;1.57;;;1.47;;
19788;SDS011;10054;59.332;18.244;2023-08-12T10:25:41;2.05;;;1.50;;
19788;SDS011;10054;59.332;18.244;2023-08-12T10:28:14;1.50;;;1.40;;
19788;SDS011;10054;59.332;18.244;2023-08-12T10:30:46;1.30;;;1.20;;
19788;SDS011;10054;59.332;18.244;2023-08-12T10:33:15;1.42;;;1.32;;
19788;SDS011;10054;59.332;18.244;2023-08-12T10:35:48;2.60;;;1.60;;
19788;SDS011;10054;59.332;18.244;2023-08-12T10:38:17;1.80;;;1.50;;
19788;SDS011;10054;59.332;18.244;2023-08-12T10:40:47;1.40;;;1.30;;
19788;SDS011;10054;59.332;18.244;2023-08-12T10:43:17;1.62;;;1.40;;
19788;SDS011;10054;59.332;18.244;2023-08-12T10:45:48;1.85;;;1.30;;
19788;SDS011;10054;59.332;18.244;2023-08-12T10:48:23;1.85;;;1.75;;
19788;SDS011;10054;59.332;18.244;2023-08-12T10:50:58;2.40;;;1.25;;
19788;SDS011;10054;59.332;18.244;2023-08-12T10:53:27;2.08;;;1.50;;
19788;SDS011;10054;59.332;18.244;2023-08-12T10:56:02;4.10;;;1.50;;
19788;SDS011;10054;59.332;18.244;2023-08-12T10:58:40;1.52;;;1.42;;
19788;SDS011;10054;59.332;18.244;2023-08-12T11:01:17;1.50;;;1.40;;
19788;SDS011;10054;59.332;18.244;2023-08-12T11:03:50;1.72;;;1.60;;
19788;SDS011;10054;59.332;18.244;2023-08-12T11:06:21;1.67;;;1.55;;
19788;SDS011;10054;59.332;18.244;2023-08-12T11:08:52;2.25;;;1.50;;
19788;SDS011;10054;59.332;18.244;2023-08-12T11:11:22;1.50;;;1.40;;
19788;SDS011;10054;59.332;18.244;2023-08-12T11:13:56;1.55;;;1.40;;
19788;SDS011;10054;59.332;18.244;2023-08-12T11:16:37;3.55;;;1.80;;
19788;SDS011;10054;59.332;18.244;2023-08-12T11:19:07;1.52;;;1.40;;
19788;SDS011;10054;59.332;18.244;2023-08-12T11:21:36;2.25;;;1.60;;
19788;SDS011;10054;59.332;18.244;2023-08-12T11:24:06;11.83;;;2.37;;
19788;SDS011;10054;59.332;18.244;2023-08-12T11:26:35;19.30;;;2.77;;
19788;SDS011;10054;59.332;18.244;2023-08-12T11:29:08;7.10;;;1.80;;
19788;SDS011;10054;59.332;18.244;2023-08-12T11:31:39;5.65;;;2.02;;
19788;SDS011;10054;59.332;18.244;2023-08-12T11:34:07;1.98;;;1.50;;
19788;SDS011;10054;59.332;18.244;2023-08-12T11:36:38;2.67;;;1.82;;
19788;SDS011;10054;59.332;18.244;2023-08-12T11:39:07;2.17;;;1.50;;
19788;SDS011;10054;59.332;18.244;2023-08-12T11:41:35;3.02;;;1.40;;
19788;SDS011;10054;59.332;18.244;2023-08-12T11:44:04;11.83;;;2.17;;
19788;SDS011;10054;59.332;18.244;2023-08-12T11:46:33;21.57;;;2.10;;
19788;SDS011;10054;59.332;18.244;2023-08-12T11:49:01;3.47;;;1.70;;
19788;SDS011;10054;59.332;18.244;2023-08-12T11:51:30;2.05;;;1.42;;
19788;SDS011;10054;59.332;18.244;2023-08-12T11:53:59;2.95;;;1.50;;
19788;SDS011;10054;59.332;18.244;2023-08-12T11:56:29;4.70;;;1.57;;
19788;SDS011;10054;59.332;18.244;2023-08-12T11:58:57;1.50;;;1.40;;
19788;SDS011;10054;59.332;18.244;2023-08-12T12:01:26;4.15;;;1.72;;
19788;SDS011;10054;59.332;18.244;2023-08-12T12:03:59;1.40;;;1.40;;
19788;SDS011;10054;59.332;18.244;2023-08-12T12:06:30;8.70;;;1.87;;
19788;SDS011;10054;59.332;18.244;2023-08-12T12:09:07;1.70;;;1.60;;
19788;SDS011;10054;59.332;18.244;2023-08-12T12:11:36;6.05;;;1.67;;
19788;SDS011;10054;59.332;18.244;2023-08-12T12:14:06;2.95;;;1.57;;
19788;SDS011;10054;59.332;18.244;2023-08-12T12:21:54;2.05;;;1.40;;
19788;SDS011;10054;59.332;18.244;2023-08-12T12:24:19;2.45;;;1.60;;
19788;SDS011;10054;59.332;18.244;2023-08-12T12:26:49;2.50;;;1.30;;
19788;SDS011;10054;59.332;18.244;2023-08-12T12:29:17;4.30;;;1.70;;
19788;SDS011;10054;59.332;18.244;2023-08-12T12:31:46;3.80;;;1.75;;
19788;SDS011;10054;59.332;18.244;2023-08-12T12:34:14;3.47;;;1.45;;
19788;SDS011;10054;59.332;18.244;2023-08-12T12:36:44;3.42;;;1.60;;
19788;SDS011;10054;59.332;18.244;2023-08-12T12:39:13;2.02;;;1.80;;
19788;SDS011;10054;59.332;18.244;2023-08-12T12:41:41;2.52;;;1.60;;
19788;SDS011;10054;59.332;18.244;2023-08-12T12:44:10;1.72;;;1.62;;
19788;SDS011;10054;59.332;18.244;2023-08-12T12:46:38;3.35;;;1.70;;
19788;SDS011;10054;59.332;18.244;2023-08-12T12:49:07;2.72;;;1.42;;
19788;SDS011;10054;59.332;18.244;2023-08-12T12:51:36;2.50;;;1.70;;
19788;SDS011;10054;59.332;18.244;2023-08-12T12:54:04;3.08;;;1.80;;
19788;SDS011;10054;59.332;18.244;2023-08-12T12:56:33;3.00;;;1.85;;
19788;SDS011;10054;59.332;18.244;2023-08-12T12:59:01;1.90;;;1.80;;
19788;SDS011;10054;59.332;18.244;2023-08-12T13:01:30;1.80;;;1.57;;
19788;SDS011;10054;59.332;18.244;2023-08-12T13:03:59;1.77;;;1.65;;
19788;SDS011;10054;59.332;18.244;2023-08-12T13:06:28;2.00;;;1.80;;
19788;SDS011;10054;59.332;18.244;2023-08-12T13:08:57;1.90;;;1.77;;
19788;SDS011;10054;59.332;18.244;2023-08-12T13:11:26;3.47;;;1.60;;
19788;SDS011;10054;59.332;18.244;2023-08-12T13:13:57;2.08;;;1.87;;
19788;SDS011;10054;59.332;18.244;2023-08-12T13:16:26;4.30;;;2.05;;
19788;SDS011;10054;59.332;18.244;2023-08-12T13:18:55;2.98;;;2.37;;
19788;SDS011;10054;59.332;18.244;2023-08-12T13:21:26;3.47;;;1.77;;
19788;SDS011;10054;59.332;18.244;2023-08-12T13:23:55;2.58;;;1.50;;
19788;SDS011;10054;59.332;18.244;2023-08-12T13:26:24;4.03;;;1.60;;
19788;SDS011;10054;59.332;18.244;2023-08-12T13:28:53;2.47;;;1.92;;
19788;SDS011;10054;59.332;18.244;2023-08-12T13:31:21;4.22;;;2.47;;
19788;SDS011;10054;59.332;18.244;2023-08-12T13:33:50;2.50;;;2.30;;
19788;SDS011;10054;59.332;18.244;2023-08-12T13:36:19;6.00;;;1.60;;
19788;SDS011;10054;59.332;18.244;2023-08-12T13:38:49;6.78;;;1.60;;
19788;SDS011;10054;59.332;18.244;2023-08-12T13:41:17;2.80;;;1.70;;
19788;SDS011;10054;59.332;18.244;2023-08-12T13:43:46;1.95;;;1.45;;
19788;SDS011;10054;59.332;18.244;2023-08-12T13:46:14;3.98;;;2.05;;
19788;SDS011;10054;59.332;18.244;2023-08-12T13:48:43;2.15;;;1.70;;
19788;SDS011;10054;59.332;18.244;2023-08-12T13:51:12;5.25;;;1.80;;
19788;SDS011;10054;59.332;18.244;2023-08-12T13:53:40;2.72;;;1.45;;
19788;SDS011;10054;59.332;18.244;2023-08-12T13:56:09;10.32;;;1.60;;
19788;SDS011;10054;59.332;18.244;2023-08-12T13:58:38;3.15;;;1.50;;
19788;SDS011;10054;59.332;18.244;2023-08-12T14:01:06;3.85;;;1.72;;
19788;SDS011;10054;59.332;18.244;2023-08-12T14:03:35;2.25;;;1.70;;
19788;SDS011;10054;59.332;18.244;2023-08-12T14:06:06;3.22;;;1.80;;
19788;SDS011;10054;59.332;18.244;2023-08-12T14:08:34;4.78;;;2.10;;
19788;SDS011;10054;59.332;18.244;2023-08-12T14:11:06;3.77;;;1.82;;
19788;SDS011;10054;59.332;18.244;2023-08-12T14:13:33;1.67;;;1.57;;
19788;SDS011;10054;59.332;18.244;2023-08-12T14:16:03;2.90;;;1.50;;
19788;SDS011;10054;59.332;18.244;2023-08-12T14:18:32;1.80;;;1.40;;
19788;SDS011;10054;59.332;18.244;2023-08-12T14:21:01;4.00;;;1.62;;
19788;SDS011;10054;59.332;18.244;2023-08-12T14:23:30;3.22;;;1.30;;
19788;SDS011;10054;59.332;18.244;2023-08-12T14:25:59;2.50;;;1.42;;
19788;SDS011;10054;59.332;18.244;2023-08-12T14:28:28;2.15;;;1.40;;
19788;SDS011;10054;59.332;18.244;2023-08-12T14:30:59;1.70;;;1.30;;
19788;SDS011;10054;59.332;18.244;2023-08-12T14:33:35;2.75;;;1.30;;
19788;SDS011;10054;59.332;18.244;2023-08-12T14:36:00;2.17;;;1.40;;
19788;SDS011;10054;59.332;18.244;2023-08-12T14:38:29;1.30;;;1.20;;
19788;SDS011;10054;59.332;18.244;2023-08-12T14:40:59;2.58;;;1.40;;
19788;SDS011;10054;59.332;18.244;2023-08-12T14:43:28;2.15;;;1.40;;
19788;SDS011;10054;59.332;18.244;2023-08-12T14:45:57;2.17;;;1.20;;
19788;SDS011;10054;59.332;18.244;2023-08-12T14:48:26;3.00;;;1.35;;
19788;SDS011;10054;59.332;18.244;2023-08-12T14:50:55;2.42;;;1.50;;